createdAt,value
2019-02-24T00:01:57.274Z,103896.21
2019-02-24T00:04:26.122Z,103902.38
2019-02-24T00:06:53.177Z,103908.19
2019-02-24T00:09:20.241Z,103904.04
2019-02-24T00:11:47.394Z,103903.16
2019-02-24T00:14:15.577Z,103900.15
2019-02-24T00:16:42.664Z,103902.29
2019-02-24T00:19:09.718Z,103893.00
2019-02-24T00:21:36.805Z,103895.02
2019-02-24T00:24:03.846Z,103891.78
2019-02-24T00:26:32.003Z,103893.08
2019-02-24T00:28:59.178Z,103876.66
2019-02-24T00:31:27.442Z,103877.73
2019-02-24T00:33:54.491Z,103877.86
2019-02-24T00:36:21.666Z,103878.91
2019-02-24T00:38:48.706Z,103874.68
2019-02-24T00:41:15.954Z,103880.22
2019-02-24T00:43:43.331Z,103884.05
2019-02-24T00:46:10.406Z,103881.46
2019-02-24T00:48:37.778Z,103876.27
2019-02-24T00:51:04.850Z,103881.00
2019-02-24T00:53:31.918Z,103880.02
2019-02-24T00:55:59.032Z,103883.89
2019-02-24T00:58:26.093Z,103878.63
2019-02-24T01:00:54.269Z,103878.87
2019-02-24T01:03:22.752Z,103871.20
2019-02-24T01:05:49.809Z,103868.48
2019-02-24T01:08:17.174Z,103879.44
2019-02-24T01:10:44.303Z,103880.53
2019-02-24T01:13:11.400Z,103879.70
2019-02-24T01:15:38.454Z,103882.80
2019-02-24T01:18:05.504Z,103890.06
2019-02-24T01:20:34.414Z,103890.87
2019-02-24T01:23:01.586Z,103892.25
2019-02-24T01:25:29.849Z,103898.27
2019-02-24T01:27:56.922Z,103911.73
2019-02-24T01:30:25.041Z,103912.62
2019-02-24T01:32:52.089Z,103913.16
2019-02-24T01:35:19.543Z,103912.33
2019-02-24T01:37:47.530Z,103916.98
2019-02-24T01:40:15.189Z,103914.72
2019-02-24T01:42:42.854Z,103916.88
2019-02-24T01:45:09.910Z,103914.62
2019-02-24T01:47:36.955Z,103899.29
2019-02-24T01:50:05.478Z,103909.56
2019-02-24T01:52:32.588Z,103900.56
2019-02-24T01:55:01.447Z,103900.77
2019-02-24T01:57:29.528Z,103902.44
2019-02-24T01:59:56.590Z,103894.48
2019-02-24T02:02:23.662Z,103888.70
2019-02-24T02:04:50.714Z,103882.66
2019-02-24T02:07:19.645Z,103881.95
2019-02-24T02:09:46.722Z,103885.45
2019-02-24T02:12:13.779Z,103876.73
2019-02-24T02:14:41.206Z,103881.03
2019-02-24T02:17:10.355Z,103878.62
2019-02-24T02:19:37.409Z,103868.84
2019-02-24T02:22:04.825Z,103865.09
2019-02-24T02:24:32.177Z,103866.81
2019-02-24T02:26:59.225Z,103855.62
2019-02-24T02:29:26.305Z,103853.42
2019-02-24T02:31:53.352Z,103850.73
2019-02-24T02:34:20.397Z,103845.92
2019-02-24T02:36:48.598Z,103839.84
2019-02-24T02:39:15.679Z,103837.12
2019-02-24T02:41:42.793Z,103834.80
2019-02-24T02:44:09.879Z,103837.72
2019-02-24T02:46:36.930Z,103832.09
2019-02-24T02:49:05.351Z,103828.34
2019-02-24T02:51:33.468Z,103822.19
2019-02-24T02:54:00.564Z,103815.83
2019-02-24T02:56:29.733Z,103807.17
2019-02-24T02:58:57.497Z,103804.83
2019-02-24T03:01:24.845Z,103801.03
2019-02-24T03:03:52.921Z,103806.45
2019-02-24T03:06:32.873Z,103822.01
2019-02-24T03:09:00.262Z,103811.41
2019-02-24T03:11:27.530Z,103815.95
2019-02-24T03:13:54.834Z,103813.23
2019-02-24T03:16:27.094Z,103812.39
2019-02-24T03:18:54.457Z,103806.00
2019-02-24T03:21:21.860Z,103810.39
2019-02-24T03:23:49.843Z,103805.00
2019-02-24T03:26:17.243Z,103803.42
2019-02-24T03:28:44.299Z,103808.25
2019-02-24T03:31:11.729Z,103809.31
2019-02-24T03:33:39.797Z,103802.33
2019-02-24T03:36:06.854Z,103800.51
2019-02-24T03:38:34.271Z,103807.13
2019-02-24T03:41:02.901Z,103796.37
2019-02-24T03:43:32.415Z,103797.95
2019-02-24T03:45:59.476Z,103788.39
2019-02-24T03:48:29.168Z,103788.05
2019-02-24T03:50:56.826Z,103789.10
2019-02-24T03:53:24.110Z,103780.92
2019-02-24T03:55:51.568Z,103778.11
2019-02-24T03:58:18.746Z,103774.60
2019-02-24T04:00:47.954Z,103773.62
2019-02-24T04:03:15.337Z,103777.94
2019-02-24T04:05:43.035Z,103774.34
2019-02-24T04:08:10.559Z,103774.99
2019-02-24T04:10:37.942Z,103764.83
2019-02-24T04:13:06.813Z,103780.29
2019-02-24T04:15:34.993Z,103786.95
2019-02-24T04:18:03.046Z,103806.23
2019-02-24T04:20:30.816Z,103805.48
2019-02-24T04:22:58.777Z,103799.37
2019-02-24T04:25:27.290Z,103799.34
2019-02-24T04:27:56.871Z,103802.30
2019-02-24T04:30:24.254Z,103796.64
2019-02-24T04:32:53.422Z,103798.84
2019-02-24T04:35:21.030Z,103781.81
2019-02-24T04:37:48.087Z,103784.35
2019-02-24T04:40:15.174Z,103774.48
2019-02-24T04:42:42.254Z,103774.88
2019-02-24T04:45:09.686Z,103782.56
2019-02-24T04:47:36.757Z,103780.69
2019-02-24T04:50:04.424Z,103766.10
2019-02-24T04:52:34.714Z,103765.32
2019-02-24T04:55:02.099Z,103768.89
2019-02-24T04:57:29.933Z,103759.89
2019-02-24T04:59:58.163Z,103753.44
2019-02-24T05:02:25.794Z,103748.73
2019-02-24T05:04:54.194Z,103749.58
2019-02-24T05:07:22.339Z,103756.45
2019-02-24T05:09:49.704Z,103750.47
2019-02-24T05:12:17.385Z,103741.08
2019-02-24T05:14:47.307Z,103739.02
2019-02-24T05:17:14.939Z,103724.01
2019-02-24T05:19:42.679Z,103722.41
2019-02-24T05:22:10.079Z,103720.87
2019-02-24T05:24:37.144Z,103731.75
2019-02-24T05:27:04.593Z,103737.78
2019-02-24T05:29:31.669Z,103737.36
2019-02-24T05:31:58.746Z,103740.34
2019-02-24T05:34:26.041Z,103747.38
2019-02-24T05:36:53.419Z,103756.03
2019-02-24T05:39:20.830Z,103752.59
2019-02-24T05:41:48.105Z,103754.69
2019-02-24T05:44:15.175Z,103767.59
2019-02-24T05:46:42.572Z,103772.87
2019-02-24T05:49:09.788Z,103774.22
2019-02-24T05:51:37.591Z,103774.48
2019-02-24T05:54:04.677Z,103778.21
2019-02-24T05:56:31.772Z,103791.78
2019-02-24T05:58:59.294Z,103794.58
2019-02-24T06:01:26.475Z,103784.94
2019-02-24T06:03:53.643Z,103789.42
2019-02-24T06:06:21.206Z,103797.13
2019-02-24T06:08:51.816Z,103820.56
2019-02-24T06:11:20.643Z,103823.13
2019-02-24T06:13:48.065Z,103828.33
2019-02-24T06:16:15.825Z,103825.80
2019-02-24T06:18:42.887Z,103834.88
2019-02-24T06:21:10.345Z,103852.12
2019-02-24T06:23:38.397Z,103867.69
2019-02-24T06:26:06.118Z,103865.91
2019-02-24T06:28:33.939Z,103860.56
2019-02-24T06:31:02.359Z,103855.13
2019-02-24T06:33:31.761Z,103856.05
2019-02-24T06:36:00.624Z,103855.55
2019-02-24T06:38:28.566Z,103858.32
2019-02-24T06:40:57.461Z,103851.06
2019-02-24T06:43:24.847Z,103857.29
2019-02-24T06:45:52.574Z,103854.19
2019-02-24T06:48:19.666Z,103845.98
2019-02-24T06:50:54.819Z,103844.38
2019-02-24T06:53:23.695Z,103834.87
2019-02-24T06:55:52.948Z,103840.27
2019-02-24T06:58:20.919Z,103832.70
2019-02-24T07:00:48.578Z,103840.21
2019-02-24T07:03:15.969Z,103846.77
2019-02-24T07:05:43.037Z,103850.13
2019-02-24T07:08:11.166Z,103846.17
2019-02-24T07:10:40.659Z,103844.63
2019-02-24T07:13:08.422Z,103845.81
2019-02-24T07:15:37.267Z,103834.80
2019-02-24T07:18:05.794Z,103837.49
2019-02-24T07:20:34.141Z,103844.42
2019-02-24T07:23:01.626Z,103842.08
2019-02-24T07:25:28.690Z,103840.16
2019-02-24T07:27:56.438Z,103832.84
2019-02-24T07:30:23.991Z,103828.53
2019-02-24T07:32:52.800Z,103817.27
2019-02-24T07:35:20.586Z,103813.72
2019-02-24T07:37:48.039Z,103816.20
2019-02-24T07:40:15.385Z,103819.23
2019-02-24T07:42:43.023Z,103818.00
2019-02-24T07:45:10.389Z,103814.69
2019-02-24T07:47:37.569Z,103819.67
2019-02-24T07:50:05.213Z,103828.61
2019-02-24T07:52:33.611Z,103834.98
2019-02-24T07:55:00.678Z,103816.67
2019-02-24T07:57:27.930Z,103811.41
2019-02-24T07:59:56.023Z,103804.30
2019-02-24T08:02:23.110Z,103799.10
2019-02-24T08:04:51.302Z,103807.21
2019-02-24T08:07:19.781Z,103806.97
2019-02-24T08:09:46.954Z,103828.98
2019-02-24T08:12:15.161Z,103866.47
2019-02-24T08:14:42.224Z,103863.22
2019-02-24T08:17:09.313Z,103845.08
2019-02-24T08:19:36.666Z,103836.86
2019-02-24T08:22:03.751Z,103841.72
2019-02-24T08:24:32.971Z,103833.16
2019-02-24T08:27:00.367Z,103820.98
2019-02-24T08:29:29.489Z,103825.42
2019-02-24T08:31:56.722Z,103828.25
2019-02-24T08:34:23.867Z,103823.72
2019-02-24T08:36:51.274Z,103811.05
2019-02-24T08:39:18.785Z,103804.64
2019-02-24T08:41:46.028Z,103829.22
2019-02-24T08:44:13.438Z,103839.30
2019-02-24T08:46:42.338Z,103844.16
2019-02-24T08:49:11.544Z,103835.83
2019-02-24T08:51:40.736Z,103841.82
2019-02-24T08:54:09.236Z,103847.88
2019-02-24T08:56:37.279Z,103842.30
2019-02-24T08:59:04.732Z,103844.51
2019-02-24T09:01:32.135Z,103852.03
2019-02-24T09:03:59.956Z,103851.98
2019-02-24T09:06:27.002Z,103843.58
2019-02-24T09:08:54.662Z,103844.69
2019-02-24T09:11:22.120Z,103834.34
2019-02-24T09:13:49.476Z,103827.61
2019-02-24T09:16:16.829Z,103823.44
2019-02-24T09:18:44.045Z,103838.22
2019-02-24T09:21:12.197Z,103828.41
2019-02-24T09:23:39.281Z,103833.19
2019-02-24T09:26:06.503Z,103825.58
2019-02-24T09:28:33.555Z,103813.14
2019-02-24T09:31:01.220Z,103825.59
2019-02-24T09:33:28.307Z,103842.21
2019-02-24T09:35:55.356Z,103827.91
2019-02-24T09:38:22.424Z,103824.13
2019-02-24T09:40:50.206Z,103822.13
2019-02-24T09:43:17.288Z,103817.84
2019-02-24T09:45:45.483Z,103815.59
2019-02-24T09:48:12.873Z,103811.44
2019-02-24T09:50:40.249Z,103816.48
2019-02-24T09:53:07.502Z,103811.23
2019-02-24T09:55:35.241Z,103813.47
2019-02-24T09:58:03.919Z,103818.63
2019-02-24T10:00:32.228Z,103824.98
2019-02-24T10:03:00.602Z,103820.42
2019-02-24T10:05:28.029Z,103818.45
2019-02-24T10:07:57.231Z,103818.34
2019-02-24T10:10:24.323Z,103832.10
2019-02-24T10:12:52.541Z,103812.70
2019-02-24T10:15:19.699Z,103837.50
2019-02-24T10:17:46.769Z,103837.50
2019-02-24T10:20:13.937Z,103840.39
2019-02-24T10:22:41.296Z,103864.89
2019-02-24T10:25:08.379Z,103873.55
2019-02-24T10:27:35.446Z,103881.05
2019-02-24T10:30:02.570Z,103879.24
2019-02-24T10:32:31.559Z,103874.02
2019-02-24T10:34:58.638Z,103871.88
2019-02-24T10:37:25.918Z,103871.44
2019-02-24T10:39:53.332Z,103871.44
2019-02-24T10:42:20.714Z,103865.55
2019-02-24T10:44:48.250Z,103857.14
2019-02-24T10:47:15.638Z,103857.14
2019-02-24T10:49:42.710Z,103853.22
2019-02-24T10:52:09.987Z,103846.64
2019-02-24T10:54:37.054Z,103843.85
2019-02-24T10:57:05.222Z,103845.20
2019-02-24T10:59:34.450Z,103840.59
2019-02-24T11:02:01.533Z,103809.05
2019-02-24T11:04:28.981Z,103809.05
2019-02-24T11:06:56.217Z,103826.05
2019-02-24T11:09:23.279Z,103800.92
2019-02-24T11:11:50.420Z,103810.19
2019-02-24T11:14:18.682Z,103804.55
2019-02-24T11:16:45.771Z,103808.18
2019-02-24T11:19:14.492Z,103810.77
2019-02-24T11:21:41.569Z,103807.05
2019-02-24T11:24:09.586Z,103801.12
2019-02-24T11:26:36.655Z,103801.31
2019-02-24T11:29:05.534Z,103801.82
2019-02-24T11:31:38.330Z,103806.08
2019-02-24T11:34:01.663Z,103802.33
2019-02-24T11:36:28.771Z,103805.45
2019-02-24T11:38:56.201Z,103807.53
2019-02-24T11:41:23.270Z,103800.32
2019-02-24T11:43:50.352Z,103799.09
2019-02-24T11:46:17.421Z,103790.70
2019-02-24T11:48:45.018Z,103787.19
2019-02-24T11:51:12.134Z,103784.50
2019-02-24T11:53:39.207Z,103778.62
2019-02-24T11:56:06.276Z,103780.30
2019-02-24T11:58:33.358Z,103778.98
2019-02-24T12:01:00.435Z,103776.71
2019-02-24T12:03:27.850Z,103771.44
2019-02-24T12:05:55.955Z,103785.20
2019-02-24T12:08:23.038Z,103781.80
2019-02-24T12:10:50.092Z,103773.23
2019-02-24T12:13:17.179Z,103781.86
2019-02-24T12:15:44.607Z,103780.00
2019-02-24T12:18:12.731Z,103782.50
2019-02-24T12:20:41.934Z,103783.43
2019-02-24T12:23:09.698Z,103777.82
2019-02-24T12:25:36.852Z,103775.86
2019-02-24T12:28:04.190Z,103768.84
2019-02-24T12:30:31.882Z,103763.58
2019-02-24T12:33:00.543Z,103763.72
2019-02-24T12:35:27.998Z,103758.84
2019-02-24T12:37:55.055Z,103768.30
2019-02-24T12:40:23.830Z,103773.39
2019-02-24T12:42:51.797Z,103776.97
2019-02-24T12:45:19.331Z,103776.13
2019-02-24T12:47:47.125Z,103783.02
2019-02-24T12:50:14.606Z,103781.78
2019-02-24T12:52:42.049Z,103786.75
2019-02-24T12:55:10.331Z,103779.43
2019-02-24T12:57:37.412Z,103766.13
2019-02-24T13:00:08.047Z,103768.21
2019-02-24T13:02:35.115Z,103772.34
2019-02-24T13:05:02.201Z,103761.56
2019-02-24T13:07:31.195Z,103761.95
2019-02-24T13:09:59.483Z,103767.15
2019-02-24T13:12:26.534Z,103761.45
2019-02-24T13:14:53.822Z,103770.17
2019-02-24T13:17:20.900Z,103761.98
2019-02-24T13:19:48.966Z,103768.83
2019-02-24T13:22:18.016Z,103761.41
2019-02-24T13:24:45.584Z,103756.17
2019-02-24T13:27:14.823Z,103751.19
2019-02-24T13:29:41.901Z,103748.98
2019-02-24T13:32:14.889Z,103758.84
2019-02-24T13:34:38.245Z,103745.07
2019-02-24T13:37:07.452Z,103741.39
2019-02-24T13:39:34.501Z,103750.98
2019-02-24T13:42:01.689Z,103738.74
2019-02-24T13:44:28.844Z,103744.97
2019-02-24T13:46:55.910Z,103742.05
2019-02-24T13:49:22.997Z,103736.75
2019-02-24T13:51:50.393Z,103749.70
2019-02-24T13:54:17.475Z,103743.12
2019-02-24T13:56:45.464Z,103733.95
2019-02-24T13:59:12.762Z,103726.70
2019-02-24T14:01:40.824Z,103736.78
2019-02-24T14:04:07.953Z,103734.68
2019-02-24T14:06:35.001Z,103729.17
2019-02-24T14:09:02.949Z,103731.71
2019-02-24T14:11:32.268Z,103734.00
2019-02-24T14:13:59.343Z,103741.42
2019-02-24T14:16:26.569Z,103745.02
2019-02-24T14:18:54.110Z,103744.58
2019-02-24T14:21:21.469Z,103740.66
2019-02-24T14:23:48.545Z,103734.98
2019-02-24T14:26:15.588Z,103735.27
2019-02-24T14:28:42.697Z,103745.19
2019-02-24T14:31:11.207Z,103751.33
2019-02-24T14:33:38.288Z,103741.69
2019-02-24T14:36:06.403Z,103743.02
2019-02-24T14:38:33.479Z,103746.81
2019-02-24T14:41:03.792Z,103742.08
2019-02-24T14:43:31.963Z,103749.02
2019-02-24T14:45:59.068Z,103739.81
2019-02-24T14:48:26.500Z,103746.06
2019-02-24T14:50:54.956Z,103749.78
2019-02-24T14:53:23.831Z,103747.73
2019-02-24T14:55:53.447Z,103744.78
2019-02-24T14:58:22.310Z,103747.56
2019-02-24T15:00:50.020Z,103749.22
2019-02-24T15:03:17.531Z,103745.94
2019-02-24T15:05:44.601Z,103749.56
2019-02-24T15:08:11.931Z,103748.94
2019-02-24T15:10:39.011Z,103744.92
2019-02-24T15:13:06.362Z,103753.84
2019-02-24T15:15:33.627Z,103759.73
2019-02-24T15:18:01.348Z,103759.05
2019-02-24T15:20:28.415Z,103760.03
2019-02-24T15:22:55.745Z,103761.73
2019-02-24T15:25:23.545Z,103767.12
2019-02-24T15:27:51.110Z,103770.50
2019-02-24T15:30:24.357Z,103768.19
2019-02-24T15:32:52.127Z,103763.14
2019-02-24T15:35:20.099Z,103760.03
2019-02-24T15:37:47.450Z,103763.56
2019-02-24T15:40:14.822Z,103766.87
2019-02-24T15:42:42.158Z,103761.92
2019-02-24T15:45:09.495Z,103768.98
2019-02-24T15:47:36.868Z,103765.11
2019-02-24T15:50:04.154Z,103757.07
2019-02-24T15:52:31.243Z,103757.12
2019-02-24T15:54:58.313Z,103745.72
2019-02-24T15:57:25.699Z,103745.34
2019-02-24T15:59:52.838Z,103748.45
2019-02-24T16:02:20.213Z,103750.62
2019-02-24T16:04:47.266Z,103764.59
2019-02-24T16:07:14.721Z,103769.11
2019-02-24T16:09:41.786Z,103764.19
2019-02-24T16:12:08.866Z,103780.62
2019-02-24T16:14:35.983Z,103793.44
2019-02-24T16:17:03.446Z,103795.13
2019-02-24T16:19:30.527Z,103793.66
2019-02-24T16:21:57.728Z,103794.77
2019-02-24T16:24:24.798Z,103789.25
2019-02-24T16:26:52.241Z,103791.61
2019-02-24T16:29:19.482Z,103796.62
2019-02-24T16:31:46.563Z,103799.21
2019-02-24T16:34:13.643Z,103798.12
2019-02-24T16:36:40.741Z,103805.52
2019-02-24T16:39:08.975Z,103806.59
2019-02-24T16:41:36.862Z,103805.25
2019-02-24T16:44:05.710Z,103806.70
2019-02-24T16:46:33.167Z,103807.13
2019-02-24T16:49:00.253Z,103807.98
2019-02-24T16:51:31.700Z,103802.95
2019-02-24T16:54:01.002Z,103806.27
2019-02-24T16:56:28.062Z,103807.39
2019-02-24T16:58:55.725Z,103809.86
2019-02-24T17:01:22.778Z,103811.97
2019-02-24T17:03:50.176Z,103810.23
2019-02-24T17:06:18.046Z,103802.33
2019-02-24T17:08:52.178Z,103816.91
2019-02-24T17:11:15.951Z,103814.53
2019-02-24T17:13:44.779Z,103809.56
2019-02-24T17:16:13.911Z,103817.77
2019-02-24T17:18:41.000Z,103824.33
2019-02-24T17:21:08.414Z,103821.97
2019-02-24T17:23:36.191Z,103823.42
2019-02-24T17:26:05.281Z,103820.81
2019-02-24T17:28:32.631Z,103820.39
2019-02-24T17:30:59.731Z,103816.60
2019-02-24T17:33:30.003Z,103810.05
2019-02-24T17:35:56.859Z,103812.36
2019-02-24T17:38:23.957Z,103798.32
2019-02-24T17:40:51.387Z,103812.64
2019-02-24T17:43:18.831Z,103807.70
2019-02-24T17:45:45.930Z,103831.58
2019-02-24T17:48:13.007Z,103831.58
2019-02-24T17:50:41.512Z,103851.27
2019-02-24T17:53:08.581Z,103851.27
2019-02-24T17:55:35.668Z,103846.19
2019-02-24T17:58:02.737Z,103867.07
2019-02-24T18:00:31.604Z,103840.50
2019-02-24T18:02:58.757Z,103855.48
2019-02-24T18:05:26.328Z,103872.09
2019-02-24T18:07:53.393Z,103872.09
2019-02-24T18:10:20.846Z,103864.91
2019-02-24T18:12:47.940Z,103864.91
2019-02-24T18:15:15.119Z,103864.91
2019-02-24T18:17:42.925Z,103865.96
2019-02-24T18:20:10.684Z,103868.58
2019-02-24T18:22:38.319Z,103876.02
2019-02-24T18:25:08.048Z,103876.02
2019-02-24T18:27:35.647Z,103870.38
2019-02-24T18:30:03.664Z,103868.75
2019-02-24T18:32:32.307Z,103868.75
2019-02-24T18:34:59.447Z,103865.23
2019-02-24T18:37:26.554Z,103844.65
2019-02-24T18:39:53.625Z,103844.65
2019-02-24T18:42:20.887Z,103861.56
2019-02-24T18:44:47.983Z,103861.56
2019-02-24T18:47:15.055Z,103864.08
2019-02-24T18:49:42.334Z,103853.48
2019-02-24T18:52:09.415Z,103860.56
2019-02-24T18:54:37.311Z,103848.06
2019-02-24T18:57:04.863Z,103862.90
2019-02-24T18:59:31.926Z,103862.90
2019-02-24T19:01:58.999Z,103865.62
2019-02-24T19:04:26.099Z,103871.20
2019-02-24T19:06:53.197Z,103874.97
2019-02-24T19:09:20.371Z,103874.97
2019-02-24T19:11:48.571Z,103859.24
2019-02-24T19:14:15.640Z,103859.24
2019-02-24T19:16:42.746Z,103861.65
2019-02-24T19:19:09.870Z,103847.00
2019-02-24T19:21:36.998Z,103856.62
2019-02-24T19:24:04.074Z,103856.62
2019-02-24T19:26:31.390Z,103863.22
2019-02-24T19:28:58.487Z,103864.92
2019-02-24T19:31:27.381Z,103864.92
2019-02-24T19:33:54.481Z,103871.44
2019-02-24T19:36:21.938Z,103871.84
2019-02-24T19:38:49.021Z,103868.33
2019-02-24T19:41:16.120Z,103870.36
2019-02-24T19:43:43.727Z,103875.48
2019-02-24T19:46:10.879Z,103877.89
2019-02-24T19:48:42.020Z,103875.61
2019-02-24T19:51:08.042Z,103864.75
2019-02-24T19:53:35.117Z,103857.55
2019-02-24T19:56:02.227Z,103862.81
2019-02-24T19:58:29.315Z,103863.95
2019-02-24T20:00:56.537Z,103864.28
2019-02-24T20:03:23.648Z,103861.55
2019-02-24T20:05:50.950Z,103857.55
2019-02-24T20:08:18.308Z,103851.23
2019-02-24T20:10:45.749Z,103851.41
2019-02-24T20:13:13.274Z,103859.46
2019-02-24T20:15:41.870Z,103861.05
2019-02-24T20:18:09.098Z,103856.84
2019-02-24T20:20:36.189Z,103856.77
2019-02-24T20:23:03.418Z,103865.27
2019-02-24T20:25:30.953Z,103869.33
2019-02-24T20:27:58.137Z,103869.14
2019-02-24T20:30:25.903Z,103873.84
2019-02-24T20:32:55.042Z,103872.35
2019-02-24T20:35:22.137Z,103874.63
2019-02-24T20:37:50.171Z,103878.75
2019-02-24T20:40:17.617Z,103876.63
2019-02-24T20:42:44.891Z,103877.45
2019-02-24T20:45:13.763Z,103874.28
2019-02-24T20:47:40.846Z,103870.59
2019-02-24T20:50:09.401Z,103872.78
2019-02-24T20:52:36.560Z,103873.02
2019-02-24T20:55:05.226Z,103871.52
2019-02-24T20:57:32.300Z,103867.16
2019-02-24T20:59:59.345Z,103866.85
2019-02-24T21:02:26.797Z,103859.62
2019-02-24T21:04:53.962Z,103860.44
2019-02-24T21:07:22.502Z,103864.17
2019-02-24T21:09:49.569Z,103866.30
2019-02-24T21:12:16.645Z,103865.85
2019-02-24T21:14:44.113Z,103862.98
2019-02-24T21:17:11.189Z,103863.45
2019-02-24T21:19:39.111Z,103856.84
2019-02-24T21:22:06.553Z,103856.16
2019-02-24T21:24:33.645Z,103851.52
2019-02-24T21:27:00.831Z,103848.97
2019-02-24T21:29:29.380Z,103852.36
2019-02-24T21:31:56.487Z,103856.91
2019-02-24T21:34:23.563Z,103859.25
2019-02-24T21:36:51.743Z,103861.92
2019-02-24T21:39:18.835Z,103857.25
2019-02-24T21:41:46.370Z,103858.75
2019-02-24T21:44:13.467Z,103853.98
2019-02-24T21:46:40.549Z,103851.72
2019-02-24T21:49:07.747Z,103859.00
2019-02-24T21:51:35.224Z,103856.72
2019-02-24T21:54:02.312Z,103847.79
2019-02-24T21:56:29.396Z,103837.05
2019-02-24T21:58:56.539Z,103843.05
2019-02-24T22:01:23.611Z,103849.00
2019-02-24T22:03:50.715Z,103848.23
2019-02-24T22:06:18.828Z,103842.56
2019-02-24T22:08:45.919Z,103848.34
2019-02-24T22:11:14.002Z,103842.41
2019-02-24T22:13:41.091Z,103850.06
2019-02-24T22:16:10.191Z,103848.27
2019-02-24T22:18:37.391Z,103853.55
2019-02-24T22:21:09.034Z,103844.42
2019-02-24T22:23:36.118Z,103848.41
2019-02-24T22:26:03.571Z,103859.23
2019-02-24T22:28:30.688Z,103851.02
2019-02-24T22:30:57.922Z,103856.87
2019-02-24T22:33:25.431Z,103849.95
2019-02-24T22:35:52.510Z,103857.44
2019-02-24T22:38:19.614Z,103858.43
2019-02-24T22:40:54.217Z,103862.36
2019-02-24T22:43:15.670Z,103862.94
2019-02-24T22:45:42.783Z,103853.47
2019-02-24T22:48:09.958Z,103855.59
2019-02-24T22:50:37.459Z,103858.45
2019-02-24T22:53:04.590Z,103862.48
2019-02-24T22:55:32.986Z,103866.49
2019-02-24T22:58:00.752Z,103866.46
2019-02-24T23:00:58.125Z,103869.88
2019-02-24T23:03:29.751Z,103870.78
2019-02-24T23:05:56.822Z,103871.50
2019-02-24T23:08:24.009Z,103876.63
2019-02-24T23:10:51.751Z,103878.88
2019-02-24T23:13:19.290Z,103870.24
2019-02-24T23:15:47.298Z,103863.17
2019-02-24T23:18:15.222Z,103863.13
2019-02-24T23:20:42.699Z,103866.46
2019-02-24T23:23:10.190Z,103869.69
2019-02-24T23:25:37.243Z,103867.50
2019-02-24T23:28:04.882Z,103871.84
2019-02-24T23:30:33.426Z,103870.66
2019-02-24T23:33:00.985Z,103855.05
2019-02-24T23:35:28.474Z,103859.77
2019-02-24T23:37:55.950Z,103851.98
2019-02-24T23:40:23.589Z,103850.79
2019-02-24T23:42:52.452Z,103843.10
2019-02-24T23:45:19.906Z,103843.87
2019-02-24T23:47:47.465Z,103834.08
2019-02-24T23:50:14.869Z,103830.63
2019-02-24T23:52:42.278Z,103832.70
2019-02-24T23:55:10.458Z,103838.53
2019-02-24T23:57:37.524Z,103835.49
